sensor_id;sensor_type;location;lat;lon;timestamp;pressure;altitude;pressure_sealevel;temperature;humidity
32452;BME280;45528;52.102;5.242;2023-05-10T00:00:15;100441.0;;;19.32;67.44
32452;BME280;45528;52.102;5.242;2023-05-10T00:01:51;100442.0;;;19.36;67.42
32452;BME280;45528;52.102;5.242;2023-05-10T00:05:04;100443.0;;;19.34;67.34
32452;BME280;45528;52.102;5.242;2023-05-10T00:06:40;100442.0;;;19.32;67.52
32452;BME280;45528;52.102;5.242;2023-05-10T00:08:17;100442.0;;;19.31;67.44
32452;BME280;45528;52.102;5.242;2023-05-10T00:11:29;100433.0;;;19.3;67.49
32452;BME280;45528;52.102;5.242;2023-05-10T00:13:05;100431.0;;;19.36;67.38
32452;BME280;45528;52.102;5.242;2023-05-10T00:14:41;100430.0;;;19.36;67.33
32452;BME280;45528;52.102;5.242;2023-05-10T00:17:53;100428.0;;;19.32;67.38
32452;BME280;45528;52.102;5.242;2023-05-10T00:19:29;100432.0;;;19.32;67.37
32452;BME280;45528;52.102;5.242;2023-05-10T00:21:06;100433.0;;;19.34;67.49
32452;BME280;45528;52.102;5.242;2023-05-10T00:22:42;100434.0;;;19.36;67.27
32452;BME280;45528;52.102;5.242;2023-05-10T00:25:54;100435.0;;;19.43;67.02
32452;BME280;45528;52.102;5.242;2023-05-10T00:27:30;100440.0;;;19.45;66.94
32452;BME280;45528;52.102;5.242;2023-05-10T00:29:06;100440.0;;;19.38;67.09
32452;BME280;45528;52.102;5.242;2023-05-10T00:32:18;100438.0;;;19.45;66.94
32452;BME280;45528;52.102;5.242;2023-05-10T00:33:55;100436.0;;;19.43;66.83
32452;BME280;45528;52.102;5.242;2023-05-10T00:35:32;100437.0;;;19.46;66.78
32452;BME280;45528;52.102;5.242;2023-05-10T00:38:44;100441.0;;;19.48;66.78
32452;BME280;45528;52.102;5.242;2023-05-10T00:40:20;100444.0;;;19.48;66.78
32452;BME280;45528;52.102;5.242;2023-05-10T00:41:56;100440.0;;;19.52;66.66
32452;BME280;45528;52.102;5.242;2023-05-10T00:45:09;100443.0;;;19.68;66.3
32452;BME280;45528;52.102;5.242;2023-05-10T00:46:44;100445.0;;;19.66;66.24
32452;BME280;45528;52.102;5.242;2023-05-10T00:48:21;100439.0;;;19.66;66.44
32452;BME280;45528;52.102;5.242;2023-05-10T00:49:58;100439.0;;;19.61;66.56
32452;BME280;45528;52.102;5.242;2023-05-10T00:53:10;100440.0;;;19.59;66.83
32452;BME280;45528;52.102;5.242;2023-05-10T00:54:46;100446.0;;;19.55;66.92
32452;BME280;45528;52.102;5.242;2023-05-10T00:56:22;100443.0;;;19.57;66.83
32452;BME280;45528;52.102;5.242;2023-05-10T00:59:36;100447.0;;;19.59;66.92
32452;BME280;45528;52.102;5.242;2023-05-10T01:01:12;100445.0;;;19.61;66.84
32452;BME280;45528;52.102;5.242;2023-05-10T01:02:49;100445.0;;;19.43;66.94
32452;BME280;45528;52.102;5.242;2023-05-10T01:06:01;100445.0;;;19.5;66.99
32452;BME280;45528;52.102;5.242;2023-05-10T01:07:37;100442.0;;;19.52;66.87
32452;BME280;45528;52.102;5.242;2023-05-10T01:09:13;100442.0;;;19.61;66.83
32452;BME280;45528;52.102;5.242;2023-05-10T01:10:49;100443.0;;;19.59;66.67
32452;BME280;45528;52.102;5.242;2023-05-10T01:14:02;100444.0;;;19.53;66.91
32452;BME280;45528;52.102;5.242;2023-05-10T01:15:39;100443.0;;;19.56;66.95
32452;BME280;45528;52.102;5.242;2023-05-10T01:17:16;100444.0;;;19.57;66.77
32452;BME280;45528;52.102;5.242;2023-05-10T01:20:38;100445.0;;;19.53;66.98
32452;BME280;45528;52.102;5.242;2023-05-10T01:22:39;100446.0;;;19.52;66.97
32452;BME280;45528;52.102;5.242;2023-05-10T01:24:40;100443.0;;;19.59;66.63
32452;BME280;45528;52.102;5.242;2023-05-10T01:28:16;100444.0;;;19.66;66.41
32452;BME280;45528;52.102;5.242;2023-05-10T01:30:11;100440.0;;;19.64;66.36
32452;BME280;45528;52.102;5.242;2023-05-10T01:32:10;100444.0;;;19.75;66.09
32452;BME280;45528;52.102;5.242;2023-05-10T01:33:55;100449.0;;;19.84;65.92
32452;BME280;45528;52.102;5.242;2023-05-10T01:37:21;100444.0;;;19.87;65.8
32452;BME280;45528;52.102;5.242;2023-05-10T01:39:05;100441.0;;;19.82;65.8
32452;BME280;45528;52.102;5.242;2023-05-10T01:40:55;100444.0;;;19.75;65.81
32452;BME280;45528;52.102;5.242;2023-05-10T01:42:40;100445.0;;;19.63;65.97
32452;BME280;45528;52.102;5.242;2023-05-10T01:44:27;100442.0;;;19.7;65.78
32452;BME280;45528;52.102;5.242;2023-05-10T01:47:58;100445.0;;;19.7;65.8
32452;BME280;45528;52.102;5.242;2023-05-10T01:49:42;100442.0;;;19.73;65.61
32452;BME280;45528;52.102;5.242;2023-05-10T01:51:21;100447.0;;;19.7;65.66
32452;BME280;45528;52.102;5.242;2023-05-10T01:53:01;100448.0;;;19.66;65.75
32452;BME280;45528;52.102;5.242;2023-05-10T01:56:20;100448.0;;;19.59;66.19
32452;BME280;45528;52.102;5.242;2023-05-10T01:58:03;100446.0;;;19.66;65.95
32452;BME280;45528;52.102;5.242;2023-05-10T01:59:43;100450.0;;;19.62;66.02
32452;BME280;45528;52.102;5.242;2023-05-10T02:01:21;100448.0;;;19.47;66.41
32452;BME280;45528;52.102;5.242;2023-05-10T02:04:40;100450.0;;;19.54;66.08
32452;BME280;45528;52.102;5.242;2023-05-10T02:06:18;100453.0;;;19.53;66.12
32452;BME280;45528;52.102;5.242;2023-05-10T02:07:58;100455.0;;;19.59;65.91
32452;BME280;45528;52.102;5.242;2023-05-10T02:09:36;100452.0;;;19.41;66.08
32452;BME280;45528;52.102;5.242;2023-05-10T02:12:53;100456.0;;;19.56;65.73
32452;BME280;45528;52.102;5.242;2023-05-10T02:14:32;100453.0;;;19.53;65.8
32452;BME280;45528;52.102;5.242;2023-05-10T02:16:11;100455.0;;;19.59;65.61
32452;BME280;45528;52.102;5.242;2023-05-10T02:17:49;100452.0;;;19.45;65.77
32452;BME280;45528;52.102;5.242;2023-05-10T02:21:09;100465.0;;;19.5;65.66
32452;BME280;45528;52.102;5.242;2023-05-10T02:22:47;100469.0;;;19.47;65.72
32452;BME280;45528;52.102;5.242;2023-05-10T02:24:25;100469.0;;;19.46;65.73
32452;BME280;45528;52.102;5.242;2023-05-10T02:27:41;100469.0;;;19.39;65.6
32452;BME280;45528;52.102;5.242;2023-05-10T02:29:18;100469.0;;;19.25;66.05
32452;BME280;45528;52.102;5.242;2023-05-10T02:30:55;100470.0;;;19.27;65.8
32452;BME280;45528;52.102;5.242;2023-05-10T02:32:33;100472.0;;;19.3;65.74
32452;BME280;45528;52.102;5.242;2023-05-10T02:35:50;100475.0;;;19.31;65.83
32452;BME280;45528;52.102;5.242;2023-05-10T02:37:27;100477.0;;;19.36;65.5
32452;BME280;45528;52.102;5.242;2023-05-10T02:39:04;100481.0;;;19.28;65.6
32452;BME280;45528;52.102;5.242;2023-05-10T02:42:23;100478.0;;;19.28;65.55
32452;BME280;45528;52.102;5.242;2023-05-10T02:44:06;100484.0;;;19.27;65.41
32452;BME280;45528;52.102;5.242;2023-05-10T02:45:47;100483.0;;;19.2;65.75
32452;BME280;45528;52.102;5.242;2023-05-10T02:47:23;100481.0;;;19.16;66.0
32452;BME280;45528;52.102;5.242;2023-05-10T02:50:38;100488.0;;;19.16;66.14
32452;BME280;45528;52.102;5.242;2023-05-10T02:52:21;100486.0;;;19.18;66.17
32452;BME280;45528;52.102;5.242;2023-05-10T02:54:01;100487.0;;;19.18;66.06
32452;BME280;45528;52.102;5.242;2023-05-10T02:55:58;100485.0;;;19.21;65.95
32452;BME280;45528;52.102;5.242;2023-05-10T02:57:40;100487.0;;;19.23;65.75
32452;BME280;45528;52.102;5.242;2023-05-10T03:00:53;100490.0;;;19.18;65.99
32452;BME280;45528;52.102;5.242;2023-05-10T03:02:30;100492.0;;;19.21;65.72
32452;BME280;45528;52.102;5.242;2023-05-10T03:04:06;100490.0;;;19.12;65.95
32452;BME280;45528;52.102;5.242;2023-05-10T03:07:19;100491.0;;;19.2;66.05
32452;BME280;45528;52.102;5.242;2023-05-10T03:08:55;100493.0;;;19.27;65.61
32452;BME280;45528;52.102;5.242;2023-05-10T03:10:32;100495.0;;;19.18;65.99
32452;BME280;45528;52.102;5.242;2023-05-10T03:12:15;100491.0;;;19.13;66.13
32452;BME280;45528;52.102;5.242;2023-05-10T03:15:58;100495.0;;;19.06;66.24
32452;BME280;45528;52.102;5.242;2023-05-10T03:17:42;100493.0;;;19.23;65.99
32452;BME280;45528;52.102;5.242;2023-05-10T03:19:26;100491.0;;;19.18;65.95
32452;BME280;45528;52.102;5.242;2023-05-10T03:21:08;100495.0;;;19.16;66.2
32452;BME280;45528;52.102;5.242;2023-05-10T03:22:49;100492.0;;;19.25;65.87
32452;BME280;45528;52.102;5.242;2023-05-10T03:26:04;100496.0;;;19.27;65.81
32452;BME280;45528;52.102;5.242;2023-05-10T03:27:43;100496.0;;;19.23;65.94
32452;BME280;45528;52.102;5.242;2023-05-10T03:29:21;100497.0;;;19.25;65.73
32452;BME280;45528;52.102;5.242;2023-05-10T03:30:59;100490.0;;;19.09;66.19
32452;BME280;45528;52.102;5.242;2023-05-10T03:34:11;100493.0;;;19.23;65.8
32452;BME280;45528;52.102;5.242;2023-05-10T03:35:47;100495.0;;;19.32;65.59
32452;BME280;45528;52.102;5.242;2023-05-10T03:37:23;100494.0;;;19.16;66.28
32452;BME280;45528;52.102;5.242;2023-05-10T03:40:35;100497.0;;;19.2;66.0
32452;BME280;45528;52.102;5.242;2023-05-10T03:42:12;100498.0;;;19.2;66.02
32452;BME280;45528;52.102;5.242;2023-05-10T03:43:48;100493.0;;;18.88;66.77
32452;BME280;45528;52.102;5.242;2023-05-10T03:47:00;100499.0;;;19.14;66.16
32452;BME280;45528;52.102;5.242;2023-05-10T03:48:36;100500.0;;;18.98;66.72
32452;BME280;45528;52.102;5.242;2023-05-10T03:50:13;100500.0;;;19.16;66.35
32452;BME280;45528;52.102;5.242;2023-05-10T03:53:25;100495.0;;;19.13;66.55
32452;BME280;45528;52.102;5.242;2023-05-10T03:55:02;100497.0;;;19.16;66.61
32452;BME280;45528;52.102;5.242;2023-05-10T03:56:38;100497.0;;;19.25;66.22
32452;BME280;45528;52.102;5.242;2023-05-10T03:58:14;100495.0;;;19.12;66.44
32452;BME280;45528;52.102;5.242;2023-05-10T04:01:27;100501.0;;;19.14;66.52
32452;BME280;45528;52.102;5.242;2023-05-10T04:03:03;100498.0;;;19.2;66.47
32452;BME280;45528;52.102;5.242;2023-05-10T04:04:39;100501.0;;;19.34;65.91
32452;BME280;45528;52.102;5.242;2023-05-10T04:13:14;100500.0;;;19.38;65.62
32452;BME280;45528;52.102;5.242;2023-05-10T04:16:25;100502.0;;;19.39;65.69
32452;BME280;45528;52.102;5.242;2023-05-10T04:18:02;100500.0;;;19.34;65.86
32452;BME280;45528;52.102;5.242;2023-05-10T04:19:38;100500.0;;;19.2;66.19
32452;BME280;45528;52.102;5.242;2023-05-10T04:21:14;100500.0;;;19.27;65.81
32452;BME280;45528;52.102;5.242;2023-05-10T04:24:26;100499.0;;;19.2;66.28
32452;BME280;45528;52.102;5.242;2023-05-10T04:26:02;100499.0;;;19.22;66.38
32452;BME280;45528;52.102;5.242;2023-05-10T04:27:38;100505.0;;;19.27;66.31
32452;BME280;45528;52.102;5.242;2023-05-10T04:30:50;100505.0;;;19.28;66.23
32452;BME280;45528;52.102;5.242;2023-05-10T04:32:27;100506.0;;;19.29;66.1
32452;BME280;45528;52.102;5.242;2023-05-10T04:34:03;100506.0;;;19.38;65.92
32452;BME280;45528;52.102;5.242;2023-05-10T04:37:15;100510.0;;;19.25;66.19
32452;BME280;45528;52.102;5.242;2023-05-10T04:38:51;100508.0;;;19.34;66.06
32452;BME280;45528;52.102;5.242;2023-05-10T04:40:27;100508.0;;;19.34;66.08
32452;BME280;45528;52.102;5.242;2023-05-10T04:43:40;100505.0;;;19.36;66.1
32452;BME280;45528;52.102;5.242;2023-05-10T04:45:16;100506.0;;;19.34;66.24
32452;BME280;45528;52.102;5.242;2023-05-10T04:46:52;100510.0;;;19.46;65.86
32452;BME280;45528;52.102;5.242;2023-05-10T04:48:28;100510.0;;;19.52;65.72
32452;BME280;45528;52.102;5.242;2023-05-10T04:51:42;100513.0;;;19.43;65.98
32452;BME280;45528;52.102;5.242;2023-05-10T04:53:18;100513.0;;;19.45;66.08
32452;BME280;45528;52.102;5.242;2023-05-10T04:54:55;100517.0;;;19.59;65.77
32452;BME280;45528;52.102;5.242;2023-05-10T04:58:07;100517.0;;;19.57;65.83
32452;BME280;45528;52.102;5.242;2023-05-10T04:59:43;100520.0;;;19.45;65.84
32452;BME280;45528;52.102;5.242;2023-05-10T05:01:19;100520.0;;;19.5;65.88
32452;BME280;45528;52.102;5.242;2023-05-10T05:04:31;100522.0;;;19.52;65.91
32452;BME280;45528;52.102;5.242;2023-05-10T05:06:07;100523.0;;;19.57;65.87
32452;BME280;45528;52.102;5.242;2023-05-10T05:07:44;100523.0;;;19.54;65.95
32452;BME280;45528;52.102;5.242;2023-05-10T05:09:20;100526.0;;;19.63;65.55
32452;BME280;45528;52.102;5.242;2023-05-10T05:12:32;100526.0;;;19.71;65.41
32452;BME280;45528;52.102;5.242;2023-05-10T05:14:08;100533.0;;;19.64;65.36
32452;BME280;45528;52.102;5.242;2023-05-10T05:15:44;100533.0;;;19.62;65.5
32452;BME280;45528;52.102;5.242;2023-05-10T05:18:57;100536.0;;;19.61;65.59
32452;BME280;45528;52.102;5.242;2023-05-10T05:20:37;100538.0;;;19.68;65.39
32452;BME280;45528;52.102;5.242;2023-05-10T05:22:16;100541.0;;;19.73;65.25
32452;BME280;45528;52.102;5.242;2023-05-10T05:25:31;100542.0;;;19.45;65.63
32452;BME280;45528;52.102;5.242;2023-05-10T05:27:07;100545.0;;;19.57;65.24
32452;BME280;45528;52.102;5.242;2023-05-10T05:28:42;100549.0;;;19.59;65.05
32452;BME280;45528;52.102;5.242;2023-05-10T05:30:18;100550.0;;;19.52;65.39
32452;BME280;45528;52.102;5.242;2023-05-10T05:33:32;100549.0;;;19.5;65.42
32452;BME280;45528;52.102;5.242;2023-05-10T05:35:09;100553.0;;;19.62;65.19
32452;BME280;45528;52.102;5.242;2023-05-10T05:36:45;100556.0;;;19.7;64.88
32452;BME280;45528;52.102;5.242;2023-05-10T05:39:59;100561.0;;;19.39;65.78
32452;BME280;45528;52.102;5.242;2023-05-10T05:41:37;100567.0;;;19.68;64.86
32452;BME280;45528;52.102;5.242;2023-05-10T05:43:15;100565.0;;;19.53;65.02
32452;BME280;45528;52.102;5.242;2023-05-10T05:44:53;100564.0;;;19.3;65.52
32452;BME280;45528;52.102;5.242;2023-05-10T05:48:08;100567.0;;;19.21;65.84
32452;BME280;45528;52.102;5.242;2023-05-10T05:49:46;100563.0;;;19.28;65.33
32452;BME280;45528;52.102;5.242;2023-05-10T05:51:24;100569.0;;;19.36;65.37
32452;BME280;45528;52.102;5.242;2023-05-10T05:54:37;100569.0;;;19.38;65.24
32452;BME280;45528;52.102;5.242;2023-05-10T05:56:14;100573.0;;;19.34;65.5
32452;BME280;45528;52.102;5.242;2023-05-10T05:57:52;100572.0;;;19.25;65.6
32452;BME280;45528;52.102;5.242;2023-05-10T06:01:07;100571.0;;;19.12;65.8
32452;BME280;45528;52.102;5.242;2023-05-10T06:02:45;100576.0;;;19.11;65.69
32452;BME280;45528;52.102;5.242;2023-05-10T06:04:23;100580.0;;;19.29;65.08
32452;BME280;45528;52.102;5.242;2023-05-10T06:06:01;100581.0;;;19.2;65.24
32452;BME280;45528;52.102;5.242;2023-05-10T06:09:16;100582.0;;;19.0;65.55
32452;BME280;45528;52.102;5.242;2023-05-10T06:10:53;100588.0;;;19.25;65.28
32452;BME280;45528;52.102;5.242;2023-05-10T06:12:30;100588.0;;;19.2;65.11
32452;BME280;45528;52.102;5.242;2023-05-10T06:15:45;100587.0;;;19.3;65.42
32452;BME280;45528;52.102;5.242;2023-05-10T06:19:01;100591.0;;;19.54;65.06
32452;BME280;45528;52.102;5.242;2023-05-10T06:20:38;100594.0;;;19.77;64.31
32452;BME280;45528;52.102;5.242;2023-05-10T06:23:55;100593.0;;;19.81;64.3
32452;BME280;45528;52.102;5.242;2023-05-10T06:25:33;100596.0;;;19.78;64.3
32452;BME280;45528;52.102;5.242;2023-05-10T06:27:11;100595.0;;;19.77;63.64
32452;BME280;45528;52.102;5.242;2023-05-10T06:28:49;100596.0;;;19.55;64.24
32452;BME280;45528;52.102;5.242;2023-05-10T06:32:04;100600.0;;;19.75;64.03
32452;BME280;45528;52.102;5.242;2023-05-10T06:33:41;100600.0;;;19.8;64.06
32452;BME280;45528;52.102;5.242;2023-05-10T06:35:19;100602.0;;;19.7;63.46
32452;BME280;45528;52.102;5.242;2023-05-10T06:38:35;100602.0;;;18.81;64.97
32452;BME280;45528;52.102;5.242;2023-05-10T06:40:13;100602.0;;;19.36;63.63
32452;BME280;45528;52.102;5.242;2023-05-10T06:41:51;100605.0;;;19.43;63.26
32452;BME280;45528;52.102;5.242;2023-05-10T06:43:28;100605.0;;;19.52;63.37
32452;BME280;45528;52.102;5.242;2023-05-10T06:46:44;100608.0;;;19.28;63.83
32452;BME280;45528;52.102;5.242;2023-05-10T06:48:21;100605.0;;;19.52;63.98
32452;BME280;45528;52.102;5.242;2023-05-10T06:49:58;100605.0;;;19.62;63.46
32452;BME280;45528;52.102;5.242;2023-05-10T06:53:11;100605.0;;;19.48;63.61
32452;BME280;45528;52.102;5.242;2023-05-10T06:54:49;100607.0;;;19.66;63.23
32452;BME280;45528;52.102;5.242;2023-05-10T06:56:26;100612.0;;;19.59;63.07
32452;BME280;45528;52.102;5.242;2023-05-10T06:59:40;100615.0;;;19.91;62.32
32452;BME280;45528;52.102;5.242;2023-05-10T07:01:18;100621.0;;;19.91;62.64
32452;BME280;45528;52.102;5.242;2023-05-10T07:02:56;100621.0;;;20.0;62.31
32452;BME280;45528;52.102;5.242;2023-05-10T07:04:32;100621.0;;;19.87;61.87
32452;BME280;45528;52.102;5.242;2023-05-10T07:07:45;100622.0;;;19.86;61.88
32452;BME280;45528;52.102;5.242;2023-05-10T07:09:23;100623.0;;;19.93;61.88
32452;BME280;45528;52.102;5.242;2023-05-10T07:11:01;100628.0;;;19.93;61.89
32452;BME280;45528;52.102;5.242;2023-05-10T07:14:18;100626.0;;;20.04;62.07
32452;BME280;45528;52.102;5.242;2023-05-10T07:15:56;100626.0;;;19.86;62.77
32452;BME280;45528;52.102;5.242;2023-05-10T07:17:33;100630.0;;;20.0;61.51
32452;BME280;45528;52.102;5.242;2023-05-10T07:19:11;100630.0;;;20.16;61.51
32452;BME280;45528;52.102;5.242;2023-05-10T07:22:26;100630.0;;;20.25;62.11
32452;BME280;45528;52.102;5.242;2023-05-10T07:24:04;100634.0;;;20.2;62.54
32452;BME280;45528;52.102;5.242;2023-05-10T07:25:41;100642.0;;;20.04;61.81
32452;BME280;45528;52.102;5.242;2023-05-10T07:28:56;100645.0;;;20.03;62.46
32452;BME280;45528;52.102;5.242;2023-05-10T07:30:33;100644.0;;;19.93;62.38
32452;BME280;45528;52.102;5.242;2023-05-10T07:32:11;100644.0;;;20.03;60.95
32452;BME280;45528;52.102;5.242;2023-05-10T07:33:48;100647.0;;;20.12;61.67
32452;BME280;45528;52.102;5.242;2023-05-10T07:37:02;100648.0;;;20.23;61.57
32452;BME280;45528;52.102;5.242;2023-05-10T07:38:40;100651.0;;;20.22;61.42
32452;BME280;45528;52.102;5.242;2023-05-10T07:40:18;100659.0;;;20.25;61.85
32452;BME280;45528;52.102;5.242;2023-05-10T07:43:33;100655.0;;;20.36;61.04
32452;BME280;45528;52.102;5.242;2023-05-10T07:45:11;100657.0;;;20.32;60.96
32452;BME280;45528;52.102;5.242;2023-05-10T07:46:48;100663.0;;;20.22;61.08
32452;BME280;45528;52.102;5.242;2023-05-10T07:48:26;100660.0;;;20.13;61.81
32452;BME280;45528;52.102;5.242;2023-05-10T07:51:40;100661.0;;;20.18;61.35
32452;BME280;45528;52.102;5.242;2023-05-10T07:53:18;100659.0;;;20.27;60.76
32452;BME280;45528;52.102;5.242;2023-05-10T07:54:55;100656.0;;;20.02;60.94
32452;BME280;45528;52.102;5.242;2023-05-10T07:58:09;100660.0;;;20.2;60.25
32452;BME280;45528;52.102;5.242;2023-05-10T07:59:46;100663.0;;;20.28;60.91
32452;BME280;45528;52.102;5.242;2023-05-10T08:01:24;100667.0;;;20.31;60.7
32452;BME280;45528;52.102;5.242;2023-05-10T08:03:03;100667.0;;;20.41;60.45
32452;BME280;45528;52.102;5.242;2023-05-10T08:06:17;100668.0;;;20.52;59.28
32452;BME280;45528;52.102;5.242;2023-05-10T08:07:55;100670.0;;;20.53;60.57
32452;BME280;45528;52.102;5.242;2023-05-10T08:09:33;100675.0;;;20.49;60.24
32452;BME280;45528;52.102;5.242;2023-05-10T08:12:48;100675.0;;;20.72;59.69
32452;BME280;45528;52.102;5.242;2023-05-10T08:14:25;100678.0;;;20.67;59.53
32452;BME280;45528;52.102;5.242;2023-05-10T08:16:04;100681.0;;;20.57;59.83
32452;BME280;45528;52.102;5.242;2023-05-10T08:17:42;100688.0;;;20.47;59.73
32452;BME280;45528;52.102;5.242;2023-05-10T08:20:58;100684.0;;;20.47;59.21
32452;BME280;45528;52.102;5.242;2023-05-10T08:22:35;100690.0;;;20.39;59.6
32452;BME280;45528;52.102;5.242;2023-05-10T08:24:13;100686.0;;;20.58;59.66
32452;BME280;45528;52.102;5.242;2023-05-10T08:27:26;100691.0;;;20.59;59.95
32452;BME280;45528;52.102;5.242;2023-05-10T08:29:05;100692.0;;;20.78;59.59
32452;BME280;45528;52.102;5.242;2023-05-10T08:30:40;100697.0;;;20.74;59.29
32452;BME280;45528;52.102;5.242;2023-05-10T08:32:18;100706.0;;;20.71;58.29
32452;BME280;45528;52.102;5.242;2023-05-10T08:35:33;100706.0;;;20.68;59.89
32452;BME280;45528;52.102;5.242;2023-05-10T08:37:11;100705.0;;;20.7;59.49
32452;BME280;45528;52.102;5.242;2023-05-10T08:38:49;100708.0;;;20.86;58.85
32452;BME280;45528;52.102;5.242;2023-05-10T08:42:07;100717.0;;;20.84;59.16
32452;BME280;45528;52.102;5.242;2023-05-10T08:43:46;100715.0;;;20.84;58.55
32452;BME280;45528;52.102;5.242;2023-05-10T08:45:27;100721.0;;;20.59;59.79
32452;BME280;45528;52.102;5.242;2023-05-10T08:47:08;100720.0;;;20.45;59.94
32452;BME280;45528;52.102;5.242;2023-05-10T08:50:27;100720.0;;;20.66;58.73
32452;BME280;45528;52.102;5.242;2023-05-10T08:52:07;100723.0;;;20.7;59.1
32452;BME280;45528;52.102;5.242;2023-05-10T08:53:44;100722.0;;;20.69;59.34
32452;BME280;45528;52.102;5.242;2023-05-10T08:55:23;100726.0;;;20.49;59.28
32452;BME280;45528;52.102;5.242;2023-05-10T08:58:38;100727.0;;;20.41;59.18
32452;BME280;45528;52.102;5.242;2023-05-10T09:00:17;100727.0;;;20.39;60.18
32452;BME280;45528;52.102;5.242;2023-05-10T09:01:57;100726.0;;;20.39;59.78
32452;BME280;45528;52.102;5.242;2023-05-10T09:05:12;100730.0;;;20.38;60.59
32452;BME280;45528;52.102;5.242;2023-05-10T09:06:48;100730.0;;;20.41;59.97
32452;BME280;45528;52.102;5.242;2023-05-10T09:08:26;100727.0;;;20.36;61.16
32452;BME280;45528;52.102;5.242;2023-05-10T09:10:05;100725.0;;;20.36;61.11
32452;BME280;45528;52.102;5.242;2023-05-10T09:13:21;100726.0;;;20.41;61.16
32452;BME280;45528;52.102;5.242;2023-05-10T09:15:01;100733.0;;;20.54;60.89
32452;BME280;45528;52.102;5.242;2023-05-10T09:16:40;100731.0;;;20.61;59.89
32452;BME280;45528;52.102;5.242;2023-05-10T09:18:18;100737.0;;;20.71;60.24
32452;BME280;45528;52.102;5.242;2023-05-10T09:21:36;100743.0;;;20.7;58.57
32452;BME280;45528;52.102;5.242;2023-05-10T09:23:13;100748.0;;;20.75;58.95
32452;BME280;45528;52.102;5.242;2023-05-10T09:25:03;100745.0;;;20.65;59.39
32452;BME280;45528;52.102;5.242;2023-05-10T09:26:46;100746.0;;;20.71;59.19
32452;BME280;45528;52.102;5.242;2023-05-10T09:30:02;100745.0;;;20.87;58.65
32452;BME280;45528;52.102;5.242;2023-05-10T09:31:45;100748.0;;;20.96;58.72
32452;BME280;45528;52.102;5.242;2023-05-10T09:33:23;100747.0;;;20.91;59.2
32452;BME280;45528;52.102;5.242;2023-05-10T09:36:53;100748.0;;;21.12;58.28
32452;BME280;45528;52.102;5.242;2023-05-10T09:38:44;100747.0;;;21.26;57.75
32452;BME280;45528;52.102;5.242;2023-05-10T09:40:24;100755.0;;;21.23;57.39
32452;BME280;45528;52.102;5.242;2023-05-10T09:42:03;100755.0;;;21.27;58.26
32452;BME280;45528;52.102;5.242;2023-05-10T09:43:42;100758.0;;;21.4;56.72
32452;BME280;45528;52.102;5.242;2023-05-10T09:46:57;100761.0;;;21.47;57.45
32452;BME280;45528;52.102;5.242;2023-05-10T09:48:41;100759.0;;;21.54;55.8
32452;BME280;45528;52.102;5.242;2023-05-10T09:50:20;100761.0;;;21.54;56.0
32452;BME280;45528;52.102;5.242;2023-05-10T09:52:00;100764.0;;;21.67;56.14
32452;BME280;45528;52.102;5.242;2023-05-10T09:55:18;100766.0;;;21.65;56.55
32452;BME280;45528;52.102;5.242;2023-05-10T09:56:55;100767.0;;;21.58;54.32
32452;BME280;45528;52.102;5.242;2023-05-10T09:58:36;100771.0;;;21.39;54.47
32452;BME280;45528;52.102;5.242;2023-05-10T10:00:17;100774.0;;;21.74;54.1
32452;BME280;45528;52.102;5.242;2023-05-10T10:03:41;100769.0;;;21.59;55.37
32452;BME280;45528;52.102;5.242;2023-05-10T10:05:19;100775.0;;;21.62;56.16
32452;BME280;45528;52.102;5.242;2023-05-10T10:06:58;100772.0;;;21.78;54.96
32452;BME280;45528;52.102;5.242;2023-05-10T10:08:37;100777.0;;;21.74;55.56
32452;BME280;45528;52.102;5.242;2023-05-10T10:11:53;100777.0;;;21.9;55.08
32452;BME280;45528;52.102;5.242;2023-05-10T10:13:31;100781.0;;;21.78;54.47
32452;BME280;45528;52.102;5.242;2023-05-10T10:15:09;100780.0;;;21.78;55.82
32452;BME280;45528;52.102;5.242;2023-05-10T10:18:27;100782.0;;;21.82;56.11
32452;BME280;45528;52.102;5.242;2023-05-10T10:20:05;100784.0;;;21.69;55.04
32452;BME280;45528;52.102;5.242;2023-05-10T10:21:43;100780.0;;;21.92;53.94
32452;BME280;45528;52.102;5.242;2023-05-10T10:23:20;100777.0;;;21.98;54.52
32452;BME280;45528;52.102;5.242;2023-05-10T10:26:37;100783.0;;;21.74;54.91
32452;BME280;45528;52.102;5.242;2023-05-10T10:28:23;100778.0;;;22.07;55.4
32452;BME280;45528;52.102;5.242;2023-05-10T10:30:10;100780.0;;;22.17;54.49
32452;BME280;45528;52.102;5.242;2023-05-10T10:31:58;100780.0;;;22.18;53.22
32452;BME280;45528;52.102;5.242;2023-05-10T10:33:54;100782.0;;;22.26;53.85
32452;BME280;45528;52.102;5.242;2023-05-10T10:37:14;100782.0;;;22.15;54.73
32452;BME280;45528;52.102;5.242;2023-05-10T10:38:56;100786.0;;;22.09;54.69
32452;BME280;45528;52.102;5.242;2023-05-10T10:40:34;100788.0;;;22.17;54.03
32452;BME280;45528;52.102;5.242;2023-05-10T10:42:11;100793.0;;;21.72;54.76
32452;BME280;45528;52.102;5.242;2023-05-10T10:45:26;100790.0;;;22.0;53.93
32452;BME280;45528;52.102;5.242;2023-05-10T10:47:06;100795.0;;;21.9;55.39
32452;BME280;45528;52.102;5.242;2023-05-10T10:48:48;100793.0;;;22.03;55.05
32452;BME280;45528;52.102;5.242;2023-05-10T10:50:26;100790.0;;;22.0;55.68
32452;BME280;45528;52.102;5.242;2023-05-10T10:54:08;100791.0;;;21.96;55.45
32452;BME280;45528;52.102;5.242;2023-05-10T10:55:46;100791.0;;;21.95;55.13
32452;BME280;45528;52.102;5.242;2023-05-10T10:57:26;100786.0;;;21.85;55.7
32452;BME280;45528;52.102;5.242;2023-05-10T10:59:03;100783.0;;;22.19;54.16
32452;BME280;45528;52.102;5.242;2023-05-10T11:02:50;100786.0;;;22.33;54.72
32452;BME280;45528;52.102;5.242;2023-05-10T11:04:26;100783.0;;;22.61;54.15
32452;BME280;45528;52.102;5.242;2023-05-10T11:06:02;100782.0;;;22.64;54.74
32452;BME280;45528;52.102;5.242;2023-05-10T11:07:51;100783.0;;;22.73;54.84
32452;BME280;45528;52.102;5.242;2023-05-10T11:09:26;100783.0;;;22.97;53.49
32452;BME280;45528;52.102;5.242;2023-05-10T11:12:51;100783.0;;;23.17;53.11
32452;BME280;45528;52.102;5.242;2023-05-10T11:14:27;100792.0;;;23.42;51.88
32452;BME280;45528;52.102;5.242;2023-05-10T11:16:12;100793.0;;;23.47;51.36